Flight Track Log - Related Links

Times and Time Zones

All times are in EDT time to prevent confusion due to time zone crossing. See the AWE480 flight status page for this flight to view local times or setup timezone preferences in your user account.

Time Position Orientation Groundspeed Altitude Reporting Facility
EDT Latitude Longitude Course Direction KTS MPH feet Rate Location/Type
Sun 08:43:52 PM 39.8667 -75.2833 270° West 170 196 600  Level Philadelphia TRACON
Sun 08:46:15 PM 39.8458 -75.4403 260° West 206 237 6,200 2,394 Climbing New York Center
Sun 08:47:00 PM 39.9057 -75.7326 258° West  Level FlightAware Approximate
Sun 08:47:15 PM 39.8511 -75.5217 275° West 244 281 8,700  Level New York Center
Sun 08:48:00 PM 39.9001 -75.8611 270° West  Level FlightAware Approximate
Sun 08:48:16 PM 39.8594 -75.6253 276° West 256 295 11,400  Level New York Center
Sun 08:49:00 PM 39.9000 -75.9904 270° West  Level FlightAware Approximate
Sun 08:49:15 PM 39.8675 -75.7286 276° West 295 339 12,800  Level New York Center
Sun 08:50:17 PM 39.8786 -75.8592 276° West 330 380 15,700 2,488 Climbing New York Center
Sun 08:51:18 PM 39.8886 -75.9628 277° West 330 380 17,900 2,085 Climbing New York Center
Sun 08:52:15 PM 39.9042 -76.0831 280° West 336 387 19,800 1,613 Climbing New York Center
Sun 08:53:17 PM 39.9089 -76.2078 273° West 341 392 21,100 1,200 Climbing New York Center
Sun 08:54:15 PM 39.9150 -76.3436 273° West 355 409 22,200 1,059 Climbing New York Center
Sun 08:55:16 PM 39.9189 -76.4819 272° West 378 435 23,200 1,033 Climbing New York Center
Sun 08:56:17 PM 39.9244 -76.6261 273° West 392 451 24,300 2,269 Climbing New York Center
Sun 08:57:15 PM 39.9300 -76.7619 273° West 399 459 27,700 2,644 Climbing New York Center
Sun 08:58:15 PM 39.9342 -76.8842 273° West 369 425 29,500 1,736 Climbing New York Center
Sun 08:59:16 PM 39.9403 -77.0064 274° West 350 403 31,200 1,450 Climbing New York Center
Sun 09:00:15 PM 39.9447 -77.1206 273° West 337 388 32,400 1,190 Climbing New York Center
Sun 09:01:17 PM 39.9467 -77.2372 271° West 327 376 33,600 787 Climbing New York Center
Sun 09:02:17 PM 39.9525 -77.3572 274° West 327 376 34,000 124 Climbing New York Center
Sun 09:04:30 PM 39.9608 -77.6372 272° West 330 380 34,000  Level Cleveland Center
Sun 09:05:32 PM 39.9656 -77.7553 273° West 330 380 34,000  Level Cleveland Center
Sun 09:06:34 PM 39.9683 -77.8711 272° West 327 376 34,000  Level Cleveland Center
Sun 09:07:36 PM 39.9719 -77.9897 272° West 327 376 34,000  Level Cleveland Center
Sun 09:08:37 PM 39.9753 -78.1069 272° West 327 376 34,000 -49 Level Cleveland Center
Sun 09:09:39 PM 39.9786 -78.2242 272° West 327 376 33,900  Descending Cleveland Center
Sun 09:10:41 PM 39.9808 -78.3528 271° West 324 373 34,000 49 Climbing Cleveland Center
Sun 09:11:42 PM 39.9853 -78.4692 273° West 324 373 34,000  Level Cleveland Center
Sun 09:12:44 PM 39.9881 -78.5858 272° West 324 373 34,000  Level Cleveland Center
Sun 09:13:46 PM 39.9903 -78.7053 271° West 329 379 34,000  Level Cleveland Center
Sun 09:14:48 PM 39.9928 -78.8247 272° West 329 379 34,000  Level Cleveland Center
Sun 09:15:49 PM 39.9956 -78.9631 272° West 329 379 34,000  Level Cleveland Center
Sun 09:16:51 PM 39.9975 -79.0836 271° West 330 380 34,000  Level Cleveland Center
Sun 09:17:53 PM 39.9994 -79.2033 271° West 330 380 34,000  Level Cleveland Center
Sun 09:18:54 PM 40.0019 -79.3244 272° West 331 381 34,000  Level Cleveland Center
Sun 09:19:57 PM 40.0033 -79.4439 271° West 330 380 34,000 -48 Level Cleveland Center
Sun 09:20:58 PM 40.0056 -79.5639 271° West 330 380 33,900  Descending Cleveland Center
Sun 09:22:00 PM 40.0078 -79.6844 271° West 330 380 34,000 49 Climbing Cleveland Center
Sun 09:23:01 PM 40.0086 -79.8086 271° West 335 386 34,000  Level Cleveland Center
Sun 09:24:03 PM 40.0106 -79.9333 271° West 337 388 34,000  Level Cleveland Center
Sun 09:25:05 PM 40.0125 -80.0850 271° West 343 395 34,000  Level Cleveland Center
Sun 09:26:07 PM 40.0131 -80.2097 270° West 342 394 34,000  Level Cleveland Center
Sun 09:27:09 PM 40.0142 -80.3358 271° West 342 394 34,000  Level Cleveland Center
Sun 09:28:10 PM 40.0144 -80.4631 270° West 347 399 34,000 -49 Level Cleveland Center
Sun 09:29:12 PM 40.0156 -80.5886 271° West 343 395 33,900  Descending Cleveland Center
Sun 09:30:14 PM 40.0158 -80.7150 270° West 344 396 34,000 48 Climbing Cleveland Center
Sun 09:31:16 PM 40.0164 -80.8417 270° West 346 398 34,000  Level Cleveland Center
Sun 09:32:17 PM 40.0136 -80.9719 268° West 353 406 34,000  Level Cleveland Center
Sun 09:33:19 PM 40.0128 -81.1025 270° West 356 410 34,000  Level Cleveland Center
Sun 09:34:21 PM 40.0108 -81.2311 269° West 355 409 34,000  Level Cleveland Center
Sun 09:35:22 PM 40.0075 -81.3594 268° West 354 407 34,000  Level Cleveland Center
Sun 09:36:24 PM 40.0056 -81.5081 269° West 353 406 34,000  Level Cleveland Center
Sun 09:37:26 PM 40.0031 -81.6375 269° West 353 406 34,000  Level Cleveland Center
Sun 09:38:28 PM 40.0006 -81.7661 269° West 354 407 34,000  Level Cleveland Center
Sun 09:39:29 PM 39.9975 -81.8944 268° West 354 407 34,000  Level Cleveland Center
Sun 09:40:31 PM 39.9956 -82.0242 269° West 355 409 34,000  Level Cleveland Center
Sun 09:41:33 PM 39.9925 -82.1536 268° West 356 410 34,000  Level Cleveland Center
Sun 09:42:34 PM 39.9886 -82.3100 268° West 358 412 34,000  Level Cleveland Center
Sun 09:43:36 PM 39.9836 -82.4411 267° West 361 415 34,000  Level Cleveland Center
Sun 09:44:52 PM 39.9800 -82.5983 268° West 361 415 34,000  Level Indianapolis Center
Sun 09:45:53 PM 39.9769 -82.7300 268° West 362 417 34,000  Level Indianapolis Center
Sun 09:46:54 PM 39.9728 -82.8631 268° West 365 420 34,000  Level Indianapolis Center
Sun 09:47:56 PM 39.9692 -82.9967 268° West 367 422 34,000  Level Indianapolis Center
Sun 09:48:57 PM 39.9636 -83.1586 267° West 370 426 34,000  Level Indianapolis Center
Sun 09:49:58 PM 39.9594 -83.2922 268° West 370 426 34,000  Level Indianapolis Center
Sun 09:51:00 PM 39.9547 -83.4256 267° West 371 427 34,000  Level Indianapolis Center
Sun 09:52:01 PM 39.9497 -83.5581 267° West 372 428 34,000  Level Indianapolis Center
Sun 09:53:02 PM 39.9450 -83.6922 267° West 374 430 34,000  Level Indianapolis Center
Sun 09:54:04 PM 39.9389 -83.8561 267° West 377 434 34,000  Level Indianapolis Center
Sun 09:55:05 PM 39.9331 -83.9922 267° West 379 436 34,000  Level Indianapolis Center
Sun 09:56:06 PM 39.9275 -84.1281 267° West 379 436 34,000  Level Indianapolis Center
Sun 09:57:08 PM 39.9211 -84.2650 267° West 379 436 34,000  Level Indianapolis Center
Sun 09:58:09 PM 39.9161 -84.4000 267° West 379 436 34,000  Level Indianapolis Center
Sun 09:59:10 PM 39.9103 -84.5361 267° West 379 436 34,000  Level Indianapolis Center
Sun 10:00:11 PM 39.9033 -84.6742 266° West 379 436 34,000  Level Indianapolis Center
Sun 10:01:13 PM 39.8972 -84.8103 267° West 379 436 34,000  Level Indianapolis Center
Sun 10:02:14 PM 39.8900 -84.9617 266° West 381 438 34,000  Level Indianapolis Center
Sun 10:03:16 PM 39.8842 -85.0975 267° West 381 438 34,000  Level Indianapolis Center
Sun 10:04:17 PM 39.8767 -85.2364 266° West 381 438 34,000  Level Indianapolis Center
Sun 10:05:18 PM 39.8700 -85.3722 266° West 381 438 34,000  Level Indianapolis Center
Sun 10:06:19 PM 39.8636 -85.5100 267° West 381 438 34,000  Level Indianapolis Center
Sun 10:07:21 PM 39.8539 -85.6750 266° West 381 438 34,000  Level Indianapolis Center
Sun 10:08:22 PM 39.8467 -85.8122 266° West 381 438 34,000  Level Indianapolis Center
Sun 10:09:23 PM 39.8386 -85.9503 266° West 382 440 34,000  Level Indianapolis Center
Sun 10:10:24 PM 39.8308 -86.0892 266° West 385 443 34,000  Level Indianapolis Center
Sun 10:11:26 PM 39.8219 -86.2269 265° West 386 444 34,000  Level Indianapolis Center
Sun 10:12:27 PM 39.8144 -86.3592 266° West 386 444 34,000  Level Indianapolis Center
Sun 10:13:28 PM 39.7792 -86.5167 254° West 382 440 34,000  Level Indianapolis Center
Sun 10:14:29 PM 39.7211 -86.6317 237° Southwest 382 440 34,000  Level Indianapolis Center
Sun 10:15:31 PM 39.6636 -86.7469 237° Southwest 383 441 34,000  Level Indianapolis Center
Sun 10:16:32 PM 39.6064 -86.8625 237° Southwest 383 441 34,000  Level Indianapolis Center
Sun 10:17:33 PM 39.5472 -86.9772 236° Southwest 383 441 34,000  Level Indianapolis Center
Sun 10:18:34 PM 39.4894 -87.0917 237° Southwest 383 441 34,000  Level Indianapolis Center
Sun 10:19:36 PM 39.4322 -87.2061 237° Southwest 383 441 34,000  Level Indianapolis Center
Sun 10:20:37 PM 39.3719 -87.3219 236° Southwest 385 443 34,000  Level Indianapolis Center
Sun 10:21:38 PM 39.3136 -87.4367 237° Southwest 386 444 34,000  Level Indianapolis Center
Sun 10:22:39 PM 39.2419 -87.5736 236° Southwest 386 444 34,000  Level Indianapolis Center
Sun 10:23:40 PM 39.1894 -87.6761 237° Southwest 386 444 34,000  Level Indianapolis Center
Sun 10:24:41 PM 39.1286 -87.7925 236° Southwest 386 444 34,000  Level Indianapolis Center
Sun 10:25:42 PM 39.0681 -87.9086 236° Southwest 386 444 34,000  Level Indianapolis Center
Sun 10:26:44 PM 38.9958 -88.0458 236° Southwest 387 445 34,000  Level Indianapolis Center
Sun 10:27:45 PM 38.9353 -88.1606 236° Southwest 387 445 34,000  Level Indianapolis Center
Sun 10:28:24 PM 38.8989 -88.2300 236° Southwest 385 443 34,000  Level Kansas City Center
Sun 10:29:25 PM 38.8386 -88.3447 236° Southwest 385 443 34,000  Level Kansas City Center
Sun 10:30:26 PM 38.7769 -88.4589 235° Southwest 386 444 34,000  Level Kansas City Center
Sun 10:31:28 PM 38.7153 -88.5733 235° Southwest 386 444 34,000  Level Kansas City Center
Sun 10:32:30 PM 38.6553 -88.6858 236° Southwest 386 444 34,000  Level Kansas City Center
Sun 10:33:30 PM 38.5886 -88.8122 236° Southwest 387 445 34,000  Level Kansas City Center
Sun 10:34:31 PM 38.5211 -88.9353 235° Southwest 388 447 34,000  Level Kansas City Center
Sun 10:35:35 PM 38.4594 -89.0489 235° Southwest 389 448 34,000  Level Kansas City Center
Sun 10:36:36 PM 38.3967 -89.1639 235° Southwest 390 449 34,000  Level Kansas City Center
Sun 10:37:35 PM 38.3331 -89.2825 236° Southwest 394 453 34,000  Level Kansas City Center
Sun 10:38:38 PM 38.2728 -89.4008 237° Southwest 395 455 34,000  Level Kansas City Center
Sun 10:39:39 PM 38.2239 -89.5286 244° Southwest 397 457 34,000  Level Kansas City Center
Sun 10:40:39 PM 38.1728 -89.6544 243° Southwest 398 458 34,000  Level Kansas City Center
Sun 10:41:42 PM 38.1222 -89.7808 243° Southwest 398 458 34,000  Level Kansas City Center
Sun 10:42:44 PM 38.0675 -89.9150 243° Southwest 400 460 34,000  Level Kansas City Center
Sun 10:43:45 PM 38.0119 -90.0508 243° Southwest 400 460 34,000  Level Kansas City Center
Sun 10:44:46 PM 37.9672 -90.1614 243° Southwest 402 463 34,000  Level Kansas City Center
Sun 10:45:47 PM 37.9150 -90.2878 242° Southwest 403 464 34,000  Level Kansas City Center
Sun 10:46:48 PM 37.8622 -90.4156 242° Southwest 404 465 34,000  Level Kansas City Center
Sun 10:47:48 PM 37.8089 -90.5444 242° Southwest 407 468 34,000  Level Kansas City Center
Sun 10:48:50 PM 37.7447 -90.6997 242° Southwest 409 471 34,000  Level Kansas City Center
Sun 10:49:51 PM 37.6914 -90.8294 243° Southwest 411 473 34,000  Level Kansas City Center
Sun 10:50:51 PM 37.6364 -90.9572 242° Southwest 412 474 34,000  Level Kansas City Center
Sun 10:51:55 PM 37.5803 -91.0936 243° Southwest 416 479 34,000  Level Kansas City Center
Sun 10:52:55 PM 37.5242 -91.2239 242° Southwest 419 482 34,000  Level Kansas City Center
Sun 10:53:57 PM 37.4706 -91.3511 242° Southwest 415 478 34,000  Level Kansas City Center
Sun 10:54:58 PM 37.4167 -91.4792 242° Southwest 412 474 34,000  Level Kansas City Center
Sun 10:55:59 PM 37.3622 -91.6072 242° Southwest 412 474 34,000  Level Kansas City Center
Sun 10:57:01 PM 37.3075 -91.7369 242° Southwest 412 474 34,000  Level Kansas City Center
Sun 10:58:02 PM 37.2508 -91.8683 242° Southwest 419 482 34,000  Level Kansas City Center
Sun 10:59:00 PM 37.1925 -92.0050 242° Southwest 434 499 34,000  Level Kansas City Center
Sun 11:00:04 PM 37.1325 -92.1422 241° Southwest 439 505 34,000  Level Kansas City Center
Sun 11:01:04 PM 37.0731 -92.2797 242° Southwest 441 507 34,000  Level Kansas City Center
Sun 11:02:06 PM 37.0133 -92.4167 241° Southwest 442 509 34,000  Level Kansas City Center
Sun 11:03:06 PM 36.9531 -92.5533 241° Southwest 442 509 34,000  Level Kansas City Center
Sun 11:04:09 PM 36.8922 -92.6903 241° Southwest 442 509 34,000  Level Kansas City Center
Sun 11:05:09 PM 36.8308 -92.8289 241° Southwest 445 512 34,000  Level Kansas City Center
Sun 11:06:10 PM 36.7694 -92.9650 241° Southwest 448 516 34,000  Level Kansas City Center
Sun 11:07:11 PM 36.6811 -93.1100 233° Southwest 466 536 34,000  Level Kansas City Center
Sun 11:08:13 PM 36.5808 -93.2056 217° Southwest 465 535 34,000  Level Kansas City Center
Sun 11:09:14 PM 36.4797 -93.3053 218° Southwest 463 533 34,000  Level Kansas City Center
Sun 11:10:15 PM 36.3778 -93.4022 217° Southwest 463 533 34,000  Level Kansas City Center
Sun 11:11:14 PM 36.2761 -93.5003 218° Southwest 464 534 34,000  Level Kansas City Center
Sun 11:12:17 PM 36.1744 -93.5981 218° Southwest 464 534 34,000  Level Kansas City Center
Sun 11:13:19 PM 36.0739 -93.6931 217° Southwest 463 533 34,000  Level Kansas City Center
Sun 11:14:19 PM 35.9719 -93.7894 217° Southwest 463 533 34,000  Level Kansas City Center
Sun 11:15:42 PM 35.8278 -93.9253 217° Southwest 463 533 34,000  Level Memphis Center
Sun 11:16:43 PM 35.7075 -94.0372 217° Southwest 460 529 34,000  Level Memphis Center
Sun 11:17:43 PM 35.6044 -94.1331 217° Southwest 460 529 34,000  Level Memphis Center
Sun 11:18:44 PM 35.5031 -94.2272 217° Southwest 460 529 34,000  Level Memphis Center
Sun 11:19:45 PM 35.4006 -94.3222 217° Southwest 460 529 34,000  Level Memphis Center
Sun 11:20:45 PM 35.2972 -94.4178 217° Southwest 461 531 34,000  Level Memphis Center
Sun 11:21:46 PM 35.1958 -94.5111 217° Southwest 461 531 34,000 -54 Level Memphis Center
Sun 11:22:37 PM 35.1142 -94.5881 218° Southwest 460 529 33,900 -54 Descending Fort Worth Center
Sun 11:23:38 PM 35.0128 -94.6778 216° Southwest 454 522 33,900 49 Level Fort Worth Center
Sun 11:24:39 PM 34.9172 -94.7817 222° Southwest 454 522 34,000 49 Climbing Fort Worth Center
Sun 11:25:40 PM 34.8250 -94.8808 221° Southwest 457 526 34,000  Level Fort Worth Center
Sun 11:26:41 PM 34.7128 -95.0003 221° Southwest 454 522 34,000  Level Fort Worth Center
Sun 11:27:42 PM 34.6192 -95.1008 221° Southwest 451 519 34,000  Level Fort Worth Center
Sun 11:28:43 PM 34.5247 -95.2019 221° Southwest 452 520 34,000  Level Fort Worth Center
Sun 11:29:44 PM 34.4322 -95.2994 221° Southwest 447 514 34,000  Level Fort Worth Center
Sun 11:30:45 PM 34.3375 -95.4006 221° Southwest 448 516 34,000  Level Fort Worth Center
Sun 11:31:46 PM 34.2461 -95.4956 221° Southwest 445 512 34,000  Level Fort Worth Center
Sun 11:32:47 PM 34.1425 -95.6033 221° Southwest 442 509 34,000 -98 Level Fort Worth Center
Sun 11:33:48 PM 34.0550 -95.6978 222° Southwest 440 506 33,800 -1,869 Descending Fort Worth Center
Sun 11:34:49 PM 33.9614 -95.7956 221° Southwest 444 511 30,200 -3,246 Descending Fort Worth Center
Sun 11:35:50 PM 33.8614 -95.8978 220° Southwest 467 537 27,200 -2,852 Descending Fort Worth Center
Sun 11:36:51 PM 33.7656 -95.9978 221° Southwest 459 528 24,400 -2,656 Descending Fort Worth Center
Sun 11:37:52 PM 33.6606 -96.1047 220° Southwest 447 514 21,800 -2,281 Descending Fort Worth Center
Sun 11:38:52 PM 33.5708 -96.1967 221° Southwest 428 493 19,800 -1,835 Descending Fort Worth Center
Sun 11:39:53 PM 33.4903 -96.2881 223° Southwest 402 463 18,100 -1,869 Descending Fort Worth Center
Sun 11:40:54 PM 33.4117 -96.3831 225° Southwest 375 432 16,000 -2,016 Descending Fort Worth Center
Sun 11:41:55 PM 33.3392 -96.4681 224° Southwest 366 421 14,000 -1,967 Descending Fort Worth Center
Sun 11:42:56 PM 33.2692 -96.5519 225° Southwest 359 413 12,000 -1,475 Descending Fort Worth Center
Sun 11:43:57 PM 33.2006 -96.6328 225° Southwest 349 402 11,000 -492 Descending Fort Worth Center
Sun 11:44:58 PM 33.1328 -96.7142 225° Southwest 349 402 11,000  Level Fort Worth Center
Sun 11:45:42 PM 33.0833 -96.7833 230° Southwest 349 402 11,000  Level Dallas / Fort Worth TRACON
Sun 11:46:36 PM 33.0167 -96.8500 220° Southwest 289 333 11,000 -158 Level Dallas / Fort Worth TRACON
Sun 11:47:36 PM 32.9667 -96.9000 220° Southwest 263 303 10,700 -700 Descending Dallas / Fort Worth TRACON
Sun 11:48:36 PM 32.9000 -96.9000 180° South 260 299 9,600 -1,238 Descending Dallas / Fort Worth TRACON
Sun 11:49:42 PM 32.8167 -96.9000 180° South 257 296 8,100 -1,500 Descending Dallas / Fort Worth TRACON
Sun 11:50:48 PM 32.7333 -96.9167 190° South 262 302 6,300 -1,650 Descending Dallas / Fort Worth TRACON
Sun 11:51:42 PM 32.6833 -96.9500 209° Southwest 252 290 4,800 -1,625 Descending Dallas / Fort Worth TRACON
Sun 11:52:24 PM 32.6833 -96.9833 270° West 180 207 3,700 -1,000 Descending Dallas / Fort Worth TRACON
Sun 11:53:30 PM 32.7333 -97.0167 331° Northwest 149 171 3,000 -450 Descending Dallas / Fort Worth TRACON
Sun 11:54:24 PM 32.7667 -97.0167 360° North 145 167 2,800 -556 Descending Dallas / Fort Worth TRACON
Sun 11:55:18 PM 32.8000 -97.0167 360° North 147 169 2,000 -727 Descending Dallas / Fort Worth TRACON
Sun 11:56:36 PM 32.8500 -97.0167 360° North 116 133 1,200 -615 Descending Dallas / Fort Worth TRACON

Login

Don't have an account? Register now (free) for customized features, flight alerts, and more!